sensor_id;sensor_type;location;lat;lon;timestamp;temperature;humidity
12907;DHT22;6521;50.498;8.474;2023-03-01T00:01:30;-1.36;74.40
12907;DHT22;6521;50.498;8.474;2023-03-01T00:04:01;-1.33;74.48
12907;DHT22;6521;50.498;8.474;2023-03-01T00:06:32;-1.35;74.46
12907;DHT22;6521;50.498;8.474;2023-03-01T00:09:03;-1.35;74.25
12907;DHT22;6521;50.498;8.474;2023-03-01T00:11:34;-1.37;74.61
12907;DHT22;6521;50.498;8.474;2023-03-01T00:14:05;-1.39;74.62
12907;DHT22;6521;50.498;8.474;2023-03-01T00:16:39;-1.43;74.61
12907;DHT22;6521;50.498;8.474;2023-03-01T00:19:17;-1.42;74.87
12907;DHT22;6521;50.498;8.474;2023-03-01T00:21:49;-1.44;74.94
12907;DHT22;6521;50.498;8.474;2023-03-01T00:24:20;-1.43;74.92
12907;DHT22;6521;50.498;8.474;2023-03-01T00:26:55;-1.48;75.11
12907;DHT22;6521;50.498;8.474;2023-03-01T00:29:26;-1.46;75.39
12907;DHT22;6521;50.498;8.474;2023-03-01T00:31:57;-1.50;75.22
12907;DHT22;6521;50.498;8.474;2023-03-01T00:34:28;-1.47;75.08
12907;DHT22;6521;50.498;8.474;2023-03-01T00:36:59;-1.53;75.08
12907;DHT22;6521;50.498;8.474;2023-03-01T00:39:35;-1.56;74.99
12907;DHT22;6521;50.498;8.474;2023-03-01T00:42:06;-1.57;75.18
12907;DHT22;6521;50.498;8.474;2023-03-01T00:44:38;-1.64;75.14
12907;DHT22;6521;50.498;8.474;2023-03-01T00:47:08;-1.64;75.59
12907;DHT22;6521;50.498;8.474;2023-03-01T00:49:39;-1.66;75.49
12907;DHT22;6521;50.498;8.474;2023-03-01T00:52:10;-1.67;75.56
12907;DHT22;6521;50.498;8.474;2023-03-01T00:54:41;-1.68;75.82
12907;DHT22;6521;50.498;8.474;2023-03-01T00:57:12;-1.70;75.73
12907;DHT22;6521;50.498;8.474;2023-03-01T00:59:43;-1.71;75.91
12907;DHT22;6521;50.498;8.474;2023-03-01T01:02:14;-1.75;75.95
12907;DHT22;6521;50.498;8.474;2023-03-01T01:04:45;-1.79;76.21
12907;DHT22;6521;50.498;8.474;2023-03-01T01:07:17;-1.79;76.42
12907;DHT22;6521;50.498;8.474;2023-03-01T01:09:48;-1.82;76.34
12907;DHT22;6521;50.498;8.474;2023-03-01T01:12:19;-1.88;76.39
12907;DHT22;6521;50.498;8.474;2023-03-01T01:14:49;-1.87;76.44
12907;DHT22;6521;50.498;8.474;2023-03-01T01:17:21;-1.89;76.61
12907;DHT22;6521;50.498;8.474;2023-03-01T01:19:52;-1.88;76.75
12907;DHT22;6521;50.498;8.474;2023-03-01T01:22:23;-1.89;76.68
12907;DHT22;6521;50.498;8.474;2023-03-01T01:24:53;-1.81;76.73
12907;DHT22;6521;50.498;8.474;2023-03-01T01:27:24;-1.84;76.67
12907;DHT22;6521;50.498;8.474;2023-03-01T01:29:55;-1.82;76.70
12907;DHT22;6521;50.498;8.474;2023-03-01T01:32:26;-1.79;76.77
12907;DHT22;6521;50.498;8.474;2023-03-01T01:34:57;-1.79;76.94
12907;DHT22;6521;50.498;8.474;2023-03-01T01:37:27;-1.81;76.98
12907;DHT22;6521;50.498;8.474;2023-03-01T01:40:02;-1.85;76.92
12907;DHT22;6521;50.498;8.474;2023-03-01T01:42:36;-1.85;77.02
12907;DHT22;6521;50.498;8.474;2023-03-01T01:45:27;-1.84;76.85
12907;DHT22;6521;50.498;8.474;2023-03-01T01:48:02;-1.89;76.71
12907;DHT22;6521;50.498;8.474;2023-03-01T01:50:35;-1.88;76.87
12907;DHT22;6521;50.498;8.474;2023-03-01T01:53:12;-1.88;77.10
12907;DHT22;6521;50.498;8.474;2023-03-01T01:55:48;-1.89;76.85
12907;DHT22;6521;50.498;8.474;2023-03-01T01:58:21;-1.89;76.76
12907;DHT22;6521;50.498;8.474;2023-03-01T02:00:53;-1.91;76.75
12907;DHT22;6521;50.498;8.474;2023-03-01T02:03:27;-1.91;77.03
12907;DHT22;6521;50.498;8.474;2023-03-01T02:06:44;-1.94;77.16
12907;DHT22;6521;50.498;8.474;2023-03-01T02:09:18;-1.94;76.99
12907;DHT22;6521;50.498;8.474;2023-03-01T02:11:50;-1.98;77.21
12907;DHT22;6521;50.498;8.474;2023-03-01T02:14:21;-1.99;77.31
12907;DHT22;6521;50.498;8.474;2023-03-01T02:16:52;-2.01;77.74
12907;DHT22;6521;50.498;8.474;2023-03-01T02:19:35;-1.98;77.62
12907;DHT22;6521;50.498;8.474;2023-03-01T02:22:27;-1.99;77.72
12907;DHT22;6521;50.498;8.474;2023-03-01T02:30:21;-2.01;77.80
12907;DHT22;6521;50.498;8.474;2023-03-01T02:32:54;-2.02;77.74
12907;DHT22;6521;50.498;8.474;2023-03-01T02:35:34;-2.01;77.89
12907;DHT22;6521;50.498;8.474;2023-03-01T02:38:07;-2.02;77.88
12907;DHT22;6521;50.498;8.474;2023-03-01T02:40:40;-2.02;77.96
12907;DHT22;6521;50.498;8.474;2023-03-01T02:43:11;-2.06;77.90
12907;DHT22;6521;50.498;8.474;2023-03-01T02:45:52;-2.06;78.10
12907;DHT22;6521;50.498;8.474;2023-03-01T02:48:23;-2.06;77.95
12907;DHT22;6521;50.498;8.474;2023-03-01T02:51:18;-2.09;77.72
12907;DHT22;6521;50.498;8.474;2023-03-01T02:56:51;-2.16;77.86
12907;DHT22;6521;50.498;8.474;2023-03-01T02:59:31;-2.18;77.84
12907;DHT22;6521;50.498;8.474;2023-03-01T03:02:02;-2.18;77.94
12907;DHT22;6521;50.498;8.474;2023-03-01T03:04:33;-2.16;77.96
12907;DHT22;6521;50.498;8.474;2023-03-01T03:07:04;-2.16;78.27
12907;DHT22;6521;50.498;8.474;2023-03-01T03:09:35;-2.15;78.02
12907;DHT22;6521;50.498;8.474;2023-03-01T03:12:06;-2.15;77.97
12907;DHT22;6521;50.498;8.474;2023-03-01T03:14:37;-2.18;78.06
12907;DHT22;6521;50.498;8.474;2023-03-01T03:17:08;-2.15;78.09
12907;DHT22;6521;50.498;8.474;2023-03-01T03:19:38;-2.15;78.15
12907;DHT22;6521;50.498;8.474;2023-03-01T03:22:09;-2.18;78.13
12907;DHT22;6521;50.498;8.474;2023-03-01T03:24:40;-2.18;78.17
12907;DHT22;6521;50.498;8.474;2023-03-01T03:27:11;-2.23;78.17
12907;DHT22;6521;50.498;8.474;2023-03-01T03:29:42;-2.23;78.34
12907;DHT22;6521;50.498;8.474;2023-03-01T03:32:12;-2.21;78.45
12907;DHT22;6521;50.498;8.474;2023-03-01T03:34:43;-2.25;78.33
12907;DHT22;6521;50.498;8.474;2023-03-01T03:37:14;-2.28;78.28
12907;DHT22;6521;50.498;8.474;2023-03-01T03:40:05;-2.30;77.88
12907;DHT22;6521;50.498;8.474;2023-03-01T03:42:45;-2.30;78.02
12907;DHT22;6521;50.498;8.474;2023-03-01T03:45:16;-2.35;78.03
12907;DHT22;6521;50.498;8.474;2023-03-01T03:47:47;-2.39;78.01
12907;DHT22;6521;50.498;8.474;2023-03-01T03:50:18;-2.39;78.13
12907;DHT22;6521;50.498;8.474;2023-03-01T03:52:49;-2.42;78.27
12907;DHT22;6521;50.498;8.474;2023-03-01T03:55:20;-2.42;78.51
12907;DHT22;6521;50.498;8.474;2023-03-01T03:57:51;-2.42;78.35
12907;DHT22;6521;50.498;8.474;2023-03-01T04:00:22;-2.45;78.58
12907;DHT22;6521;50.498;8.474;2023-03-01T04:02:54;-2.43;78.78
12907;DHT22;6521;50.498;8.474;2023-03-01T04:05:28;-2.43;78.62
12907;DHT22;6521;50.498;8.474;2023-03-01T04:07:59;-2.42;78.50
12907;DHT22;6521;50.498;8.474;2023-03-01T04:10:39;-2.43;78.65
12907;DHT22;6521;50.498;8.474;2023-03-01T04:13:11;-2.45;78.60
12907;DHT22;6521;50.498;8.474;2023-03-01T04:15:43;-2.45;78.62
12907;DHT22;6521;50.498;8.474;2023-03-01T04:18:15;-2.47;78.81
12907;DHT22;6521;50.498;8.474;2023-03-01T04:20:46;-2.52;78.84
12907;DHT22;6521;50.498;8.474;2023-03-01T04:23:19;-2.50;79.10
12907;DHT22;6521;50.498;8.474;2023-03-01T04:25:53;-2.50;79.28
12907;DHT22;6521;50.498;8.474;2023-03-01T04:28:30;-2.52;79.12
12907;DHT22;6521;50.498;8.474;2023-03-01T04:31:06;-2.53;79.11
12907;DHT22;6521;50.498;8.474;2023-03-01T04:33:54;-2.56;79.07
12907;DHT22;6521;50.498;8.474;2023-03-01T04:36:27;-2.60;79.18
12907;DHT22;6521;50.498;8.474;2023-03-01T04:38:58;-2.66;79.22
12907;DHT22;6521;50.498;8.474;2023-03-01T04:41:29;-2.66;79.22
12907;DHT22;6521;50.498;8.474;2023-03-01T04:44:00;-2.68;79.50
12907;DHT22;6521;50.498;8.474;2023-03-01T04:46:31;-2.66;79.96
12907;DHT22;6521;50.498;8.474;2023-03-01T04:49:02;-2.66;79.93
12907;DHT22;6521;50.498;8.474;2023-03-01T04:51:33;-2.66;79.84
12907;DHT22;6521;50.498;8.474;2023-03-01T04:54:04;-2.66;79.89
12907;DHT22;6521;50.498;8.474;2023-03-01T04:56:39;-2.61;79.79
12907;DHT22;6521;50.498;8.474;2023-03-01T04:59:09;-2.58;79.91
12907;DHT22;6521;50.498;8.474;2023-03-01T05:01:43;-2.61;79.83
12907;DHT22;6521;50.498;8.474;2023-03-01T05:04:13;-2.57;79.68
12907;DHT22;6521;50.498;8.474;2023-03-01T05:06:44;-2.58;79.83
12907;DHT22;6521;50.498;8.474;2023-03-01T05:09:15;-2.56;79.94
12907;DHT22;6521;50.498;8.474;2023-03-01T05:11:46;-2.54;79.77
12907;DHT22;6521;50.498;8.474;2023-03-01T05:14:17;-2.53;79.65
12907;DHT22;6521;50.498;8.474;2023-03-01T05:16:47;-2.53;79.70
12907;DHT22;6521;50.498;8.474;2023-03-01T05:19:18;-2.56;79.66
12907;DHT22;6521;50.498;8.474;2023-03-01T05:21:53;-2.54;79.69
12907;DHT22;6521;50.498;8.474;2023-03-01T05:24:34;-2.54;79.72
12907;DHT22;6521;50.498;8.474;2023-03-01T05:27:06;-2.54;79.73
12907;DHT22;6521;50.498;8.474;2023-03-01T05:29:36;-2.56;79.80
12907;DHT22;6521;50.498;8.474;2023-03-01T05:32:09;-2.57;79.90
12907;DHT22;6521;50.498;8.474;2023-03-01T05:34:45;-2.58;79.58
12907;DHT22;6521;50.498;8.474;2023-03-01T05:37:16;-2.61;79.55
12907;DHT22;6521;50.498;8.474;2023-03-01T05:39:47;-2.63;79.71
12907;DHT22;6521;50.498;8.474;2023-03-01T05:42:20;-2.63;79.95
12907;DHT22;6521;50.498;8.474;2023-03-01T05:44:51;-2.63;80.05
12907;DHT22;6521;50.498;8.474;2023-03-01T05:47:22;-2.66;79.79
12907;DHT22;6521;50.498;8.474;2023-03-01T05:49:53;-2.67;79.87
12907;DHT22;6521;50.498;8.474;2023-03-01T05:52:24;-2.67;79.96
12907;DHT22;6521;50.498;8.474;2023-03-01T05:54:55;-2.66;80.06
12907;DHT22;6521;50.498;8.474;2023-03-01T05:57:28;-2.61;80.02
12907;DHT22;6521;50.498;8.474;2023-03-01T05:59:58;-2.64;80.12
12907;DHT22;6521;50.498;8.474;2023-03-01T06:02:29;-2.63;80.12
12907;DHT22;6521;50.498;8.474;2023-03-01T06:05:00;-2.63;80.11
12907;DHT22;6521;50.498;8.474;2023-03-01T06:07:31;-2.58;80.07
12907;DHT22;6521;50.498;8.474;2023-03-01T06:10:03;-2.60;79.96
12907;DHT22;6521;50.498;8.474;2023-03-01T06:12:36;-2.63;79.88
12907;DHT22;6521;50.498;8.474;2023-03-01T06:15:08;-2.61;79.85
12907;DHT22;6521;50.498;8.474;2023-03-01T06:17:42;-2.58;79.85
12907;DHT22;6521;50.498;8.474;2023-03-01T06:20:19;-2.64;80.03
12907;DHT22;6521;50.498;8.474;2023-03-01T06:22:50;-2.61;80.25
12907;DHT22;6521;50.498;8.474;2023-03-01T06:25:23;-2.60;80.31
12907;DHT22;6521;50.498;8.474;2023-03-01T06:27:54;-2.60;80.22
12907;DHT22;6521;50.498;8.474;2023-03-01T06:30:26;-2.63;80.22
12907;DHT22;6521;50.498;8.474;2023-03-01T06:32:56;-2.63;80.37
12907;DHT22;6521;50.498;8.474;2023-03-01T06:35:31;-2.66;80.57
12907;DHT22;6521;50.498;8.474;2023-03-01T06:38:03;-2.68;80.75
12907;DHT22;6521;50.498;8.474;2023-03-01T06:40:34;-2.67;80.89
12907;DHT22;6521;50.498;8.474;2023-03-01T06:43:06;-2.61;80.95
12907;DHT22;6521;50.498;8.474;2023-03-01T06:45:37;-2.54;80.74
12907;DHT22;6521;50.498;8.474;2023-03-01T06:48:08;-2.49;80.61
12907;DHT22;6521;50.498;8.474;2023-03-01T06:50:39;-2.39;80.54
12907;DHT22;6521;50.498;8.474;2023-03-01T06:53:10;-2.25;80.94
12907;DHT22;6521;50.498;8.474;2023-03-01T06:55:41;-2.06;79.99
12907;DHT22;6521;50.498;8.474;2023-03-01T06:58:12;-2.05;79.69
12907;DHT22;6521;50.498;8.474;2023-03-01T07:00:43;-2.05;79.84
12907;DHT22;6521;50.498;8.474;2023-03-01T07:03:14;-2.02;79.83
12907;DHT22;6521;50.498;8.474;2023-03-01T07:05:45;-1.96;79.69
12907;DHT22;6521;50.498;8.474;2023-03-01T07:08:20;-1.89;79.77
12907;DHT22;6521;50.498;8.474;2023-03-01T07:10:57;-1.82;79.60
12907;DHT22;6521;50.498;8.474;2023-03-01T07:13:29;-1.75;79.47
12907;DHT22;6521;50.498;8.474;2023-03-01T07:15:59;-1.64;79.27
12907;DHT22;6521;50.498;8.474;2023-03-01T07:18:30;-1.57;79.07
12907;DHT22;6521;50.498;8.474;2023-03-01T07:21:08;-1.51;78.79
12907;DHT22;6521;50.498;8.474;2023-03-01T07:23:41;-1.40;78.99
12907;DHT22;6521;50.498;8.474;2023-03-01T07:26:12;-1.33;78.38
12907;DHT22;6521;50.498;8.474;2023-03-01T07:28:42;-1.26;78.30
12907;DHT22;6521;50.498;8.474;2023-03-01T07:31:13;-1.20;77.95
12907;DHT22;6521;50.498;8.474;2023-03-01T07:33:44;-1.17;77.58
12907;DHT22;6521;50.498;8.474;2023-03-01T07:36:15;-1.16;77.12
12907;DHT22;6521;50.498;8.474;2023-03-01T07:38:46;-1.15;76.98
12907;DHT22;6521;50.498;8.474;2023-03-01T07:41:17;-1.13;76.91
12907;DHT22;6521;50.498;8.474;2023-03-01T07:43:48;-1.13;77.01
12907;DHT22;6521;50.498;8.474;2023-03-01T07:46:18;-1.13;76.36
12907;DHT22;6521;50.498;8.474;2023-03-01T07:48:49;-1.09;76.67
12907;DHT22;6521;50.498;8.474;2023-03-01T07:51:22;-1.09;76.80
12907;DHT22;6521;50.498;8.474;2023-03-01T07:53:53;-1.02;76.25
12907;DHT22;6521;50.498;8.474;2023-03-01T07:56:24;-1.05;76.44
12907;DHT22;6521;50.498;8.474;2023-03-01T07:58:55;-1.00;76.41
12907;DHT22;6521;50.498;8.474;2023-03-01T08:01:26;-1.03;76.15
12907;DHT22;6521;50.498;8.474;2023-03-01T08:03:57;-0.99;76.38
12907;DHT22;6521;50.498;8.474;2023-03-01T08:06:28;-0.98;76.14
12907;DHT22;6521;50.498;8.474;2023-03-01T08:08:58;-0.96;75.96
12907;DHT22;6521;50.498;8.474;2023-03-01T08:11:29;-0.91;76.19
12907;DHT22;6521;50.498;8.474;2023-03-01T08:14:00;-0.86;75.79
12907;DHT22;6521;50.498;8.474;2023-03-01T08:16:30;-0.84;75.70
12907;DHT22;6521;50.498;8.474;2023-03-01T08:19:07;-0.77;76.02
12907;DHT22;6521;50.498;8.474;2023-03-01T08:21:38;-0.72;75.75
12907;DHT22;6521;50.498;8.474;2023-03-01T08:24:09;-0.71;75.37
12907;DHT22;6521;50.498;8.474;2023-03-01T08:26:40;-0.65;75.21
12907;DHT22;6521;50.498;8.474;2023-03-01T08:29:11;-0.64;75.13
12907;DHT22;6521;50.498;8.474;2023-03-01T08:31:42;-0.54;75.84
12907;DHT22;6521;50.498;8.474;2023-03-01T08:34:16;-0.50;74.66
12907;DHT22;6521;50.498;8.474;2023-03-01T08:36:47;-0.44;74.61
12907;DHT22;6521;50.498;8.474;2023-03-01T08:39:19;-0.38;74.48
12907;DHT22;6521;50.498;8.474;2023-03-01T08:41:50;-0.33;73.98
12907;DHT22;6521;50.498;8.474;2023-03-01T08:44:21;-0.27;73.74
12907;DHT22;6521;50.498;8.474;2023-03-01T08:46:52;-0.24;74.16
12907;DHT22;6521;50.498;8.474;2023-03-01T08:49:25;-0.13;73.75
12907;DHT22;6521;50.498;8.474;2023-03-01T08:51:55;-0.09;74.08
12907;DHT22;6521;50.498;8.474;2023-03-01T08:54:26;0.02;73.64
12907;DHT22;6521;50.498;8.474;2023-03-01T08:56:57;0.07;73.37
12907;DHT22;6521;50.498;8.474;2023-03-01T08:59:29;0.15;72.98
12907;DHT22;6521;50.498;8.474;2023-03-01T09:02:00;0.25;73.08
12907;DHT22;6521;50.498;8.474;2023-03-01T09:04:31;0.25;72.26
12907;DHT22;6521;50.498;8.474;2023-03-01T09:07:01;0.25;72.24
12907;DHT22;6521;50.498;8.474;2023-03-01T09:09:32;0.35;72.50
12907;DHT22;6521;50.498;8.474;2023-03-01T09:12:03;0.42;72.50
12907;DHT22;6521;50.498;8.474;2023-03-01T09:14:34;0.59;72.18
12907;DHT22;6521;50.498;8.474;2023-03-01T09:17:07;0.70;71.38
12907;DHT22;6521;50.498;8.474;2023-03-01T09:19:38;0.91;71.81
12907;DHT22;6521;50.498;8.474;2023-03-01T09:22:09;1.07;69.76
12907;DHT22;6521;50.498;8.474;2023-03-01T09:24:39;1.21;68.49
12907;DHT22;6521;50.498;8.474;2023-03-01T09:27:11;1.40;68.12
12907;DHT22;6521;50.498;8.474;2023-03-01T09:29:43;1.61;67.76
12907;DHT22;6521;50.498;8.474;2023-03-01T09:32:14;1.85;67.34
12907;DHT22;6521;50.498;8.474;2023-03-01T09:34:44;2.05;66.06
12907;DHT22;6521;50.498;8.474;2023-03-01T09:37:35;2.31;66.42
12907;DHT22;6521;50.498;8.474;2023-03-01T09:40:11;2.58;65.64
12907;DHT22;6521;50.498;8.474;2023-03-01T09:42:56;2.93;64.79
12907;DHT22;6521;50.498;8.474;2023-03-01T09:45:34;3.17;64.17
12907;DHT22;6521;50.498;8.474;2023-03-01T09:48:12;3.24;62.10
12907;DHT22;6521;50.498;8.474;2023-03-01T09:50:45;3.22;61.42
12907;DHT22;6521;50.498;8.474;2023-03-01T09:53:27;3.24;60.45
12907;DHT22;6521;50.498;8.474;2023-03-01T09:56:20;3.48;60.15
12907;DHT22;6521;50.498;8.474;2023-03-01T10:04:38;4.16;59.00
12907;DHT22;6521;50.498;8.474;2023-03-01T10:07:32;4.37;57.21
12907;DHT22;6521;50.498;8.474;2023-03-01T10:10:22;4.40;57.21
12907;DHT22;6521;50.498;8.474;2023-03-01T10:12:54;4.46;57.85
12907;DHT22;6521;50.498;8.474;2023-03-01T10:15:43;4.77;56.11
12907;DHT22;6521;50.498;8.474;2023-03-01T10:18:19;5.12;56.49
12907;DHT22;6521;50.498;8.474;2023-03-01T10:21:03;5.57;54.60
12907;DHT22;6521;50.498;8.474;2023-03-01T10:23:36;5.63;53.03
12907;DHT22;6521;50.498;8.474;2023-03-01T10:26:38;5.52;53.04
12907;DHT22;6521;50.498;8.474;2023-03-01T10:29:12;5.63;52.66
12907;DHT22;6521;50.498;8.474;2023-03-01T10:31:46;5.69;52.57
12907;DHT22;6521;50.498;8.474;2023-03-01T10:34:26;5.84;52.59
12907;DHT22;6521;50.498;8.474;2023-03-01T10:37:04;5.98;51.51
12907;DHT22;6521;50.498;8.474;2023-03-01T10:40:03;6.13;51.39
12907;DHT22;6521;50.498;8.474;2023-03-01T10:42:48;6.72;51.92
12907;DHT22;6521;50.498;8.474;2023-03-01T10:50:47;7.41;48.92
12907;DHT22;6521;50.498;8.474;2023-03-01T10:53:28;7.31;47.59
12907;DHT22;6521;50.498;8.474;2023-03-01T10:58:38;7.14;48.58
12907;DHT22;6521;50.498;8.474;2023-03-01T11:04:07;7.23;48.40
12907;DHT22;6521;50.498;8.474;2023-03-01T11:06:41;7.87;48.35
12907;DHT22;6521;50.498;8.474;2023-03-01T11:09:23;8.26;46.74
12907;DHT22;6521;50.498;8.474;2023-03-01T11:11:57;8.36;45.52
12907;DHT22;6521;50.498;8.474;2023-03-01T11:14:33;8.30;46.77
12907;DHT22;6521;50.498;8.474;2023-03-01T11:17:15;8.42;46.52
12907;DHT22;6521;50.498;8.474;2023-03-01T11:20:29;8.71;43.91
12907;DHT22;6521;50.498;8.474;2023-03-01T11:23:12;8.51;43.98
12907;DHT22;6521;50.498;8.474;2023-03-01T11:25:48;8.40;45.34
12907;DHT22;6521;50.498;8.474;2023-03-01T11:28:22;8.61;44.81
12907;DHT22;6521;50.498;8.474;2023-03-01T11:31:00;8.96;44.80
12907;DHT22;6521;50.498;8.474;2023-03-01T11:33:35;9.20;44.67
12907;DHT22;6521;50.498;8.474;2023-03-01T11:39:23;9.47;43.48
12907;DHT22;6521;50.498;8.474;2023-03-01T11:44:36;9.51;43.76
12907;DHT22;6521;50.498;8.474;2023-03-01T11:47:18;9.20;43.38
12907;DHT22;6521;50.498;8.474;2023-03-01T11:52:56;8.85;44.48
12907;DHT22;6521;50.498;8.474;2023-03-01T11:58:56;9.60;43.91
12907;DHT22;6521;50.498;8.474;2023-03-01T12:04:36;9.71;42.96
12907;DHT22;6521;50.498;8.474;2023-03-01T12:07:16;9.60;42.74
12907;DHT22;6521;50.498;8.474;2023-03-01T12:18:39;9.57;43.60
12907;DHT22;6521;50.498;8.474;2023-03-01T12:26:36;8.95;44.51
12907;DHT22;6521;50.498;8.474;2023-03-01T12:32:18;8.73;43.66
12907;DHT22;6521;50.498;8.474;2023-03-01T12:35:16;8.78;44.49
12907;DHT22;6521;50.498;8.474;2023-03-01T12:47:16;8.99;43.86
12907;DHT22;6521;50.498;8.474;2023-03-01T12:49:52;9.09;44.36
12907;DHT22;6521;50.498;8.474;2023-03-01T12:52:54;9.06;42.42
12907;DHT22;6521;50.498;8.474;2023-03-01T12:55:28;9.06;42.09
12907;DHT22;6521;50.498;8.474;2023-03-01T13:03:26;8.89;42.40
12907;DHT22;6521;50.498;8.474;2023-03-01T13:06:08;8.93;43.85
12907;DHT22;6521;50.498;8.474;2023-03-01T13:08:49;8.69;42.23
12907;DHT22;6521;50.498;8.474;2023-03-01T13:11:23;8.78;44.02
12907;DHT22;6521;50.498;8.474;2023-03-01T13:16:54;9.08;42.84
12907;DHT22;6521;50.498;8.474;2023-03-01T13:19:27;9.26;43.19
12907;DHT22;6521;50.498;8.474;2023-03-01T13:22:26;9.23;41.75
12907;DHT22;6521;50.498;8.474;2023-03-01T13:25:19;9.27;43.42
12907;DHT22;6521;50.498;8.474;2023-03-01T13:27:50;9.23;43.02
12907;DHT22;6521;50.498;8.474;2023-03-01T13:35:57;8.83;41.54
12907;DHT22;6521;50.498;8.474;2023-03-01T13:41:17;8.96;42.82
12907;DHT22;6521;50.498;8.474;2023-03-01T13:43:48;9.23;42.71
12907;DHT22;6521;50.498;8.474;2023-03-01T13:46:23;8.99;40.94
12907;DHT22;6521;50.498;8.474;2023-03-01T13:48:56;8.83;41.20
12907;DHT22;6521;50.498;8.474;2023-03-01T13:51:27;8.78;42.50
12907;DHT22;6521;50.498;8.474;2023-03-01T13:53:59;8.98;42.58
12907;DHT22;6521;50.498;8.474;2023-03-01T13:56:36;9.24;41.95
12907;DHT22;6521;50.498;8.474;2023-03-01T13:59:19;9.18;40.17
12907;DHT22;6521;50.498;8.474;2023-03-01T14:01:56;8.89;41.08
12907;DHT22;6521;50.498;8.474;2023-03-01T14:04:32;8.75;41.35
12907;DHT22;6521;50.498;8.474;2023-03-01T14:09:46;8.37;42.63
12907;DHT22;6521;50.498;8.474;2023-03-01T14:12:37;8.19;42.59
12907;DHT22;6521;50.498;8.474;2023-03-01T14:15:19;8.40;42.34
12907;DHT22;6521;50.498;8.474;2023-03-01T14:18:13;8.45;41.59
12907;DHT22;6521;50.498;8.474;2023-03-01T14:20:45;8.29;41.48
12907;DHT22;6521;50.498;8.474;2023-03-01T14:23:23;8.30;42.60
12907;DHT22;6521;50.498;8.474;2023-03-01T14:25:55;8.31;42.00
12907;DHT22;6521;50.498;8.474;2023-03-01T14:28:28;8.33;41.67
12907;DHT22;6521;50.498;8.474;2023-03-01T14:31:01;8.31;41.49
12907;DHT22;6521;50.498;8.474;2023-03-01T14:33:36;8.34;42.08
12907;DHT22;6521;50.498;8.474;2023-03-01T14:36:09;8.51;42.46
12907;DHT22;6521;50.498;8.474;2023-03-01T14:38:43;8.68;41.77
12907;DHT22;6521;50.498;8.474;2023-03-01T14:41:20;8.58;40.74
12907;DHT22;6521;50.498;8.474;2023-03-01T14:43:58;8.33;40.69
12907;DHT22;6521;50.498;8.474;2023-03-01T14:46:34;8.26;40.95
12907;DHT22;6521;50.498;8.474;2023-03-01T14:49:19;8.30;40.91
12907;DHT22;6521;50.498;8.474;2023-03-01T14:52:02;8.17;41.08
12907;DHT22;6521;50.498;8.474;2023-03-01T14:54:41;7.97;40.92
12907;DHT22;6521;50.498;8.474;2023-03-01T14:57:19;8.06;41.35
12907;DHT22;6521;50.498;8.474;2023-03-01T14:59:54;7.96;41.79
12907;DHT22;6521;50.498;8.474;2023-03-01T15:02:27;7.82;42.78
12907;DHT22;6521;50.498;8.474;2023-03-01T15:05:03;7.69;43.17
12907;DHT22;6521;50.498;8.474;2023-03-01T15:07:40;7.59;42.83
12907;DHT22;6521;50.498;8.474;2023-03-01T15:10:22;7.41;42.16
12907;DHT22;6521;50.498;8.474;2023-03-01T15:12:54;7.27;42.83
12907;DHT22;6521;50.498;8.474;2023-03-01T15:18:46;7.00;43.15
12907;DHT22;6521;50.498;8.474;2023-03-01T15:20:52;6.97;43.38
12907;DHT22;6521;50.498;8.474;2023-03-01T15:23:25;7.00;43.20
12907;DHT22;6521;50.498;8.474;2023-03-01T15:25:57;6.87;43.10
12907;DHT22;6521;50.498;8.474;2023-03-01T15:28:31;6.86;43.21
12907;DHT22;6521;50.498;8.474;2023-03-01T15:33:49;6.86;41.87
12907;DHT22;6521;50.498;8.474;2023-03-01T15:36:43;6.75;41.45
12907;DHT22;6521;50.498;8.474;2023-03-01T15:39:37;6.56;40.78
12907;DHT22;6521;50.498;8.474;2023-03-01T15:47:52;6.24;42.54
12907;DHT22;6521;50.498;8.474;2023-03-01T15:50:35;6.22;41.99
12907;DHT22;6521;50.498;8.474;2023-03-01T15:53:13;6.08;42.97
12907;DHT22;6521;50.498;8.474;2023-03-01T15:55:45;6.04;43.42
12907;DHT22;6521;50.498;8.474;2023-03-01T15:58:24;5.93;43.82
12907;DHT22;6521;50.498;8.474;2023-03-01T16:00:55;5.73;44.46
12907;DHT22;6521;50.498;8.474;2023-03-01T16:03:29;5.64;44.56
12907;DHT22;6521;50.498;8.474;2023-03-01T16:06:00;5.57;45.10
12907;DHT22;6521;50.498;8.474;2023-03-01T16:08:31;5.55;44.84
12907;DHT22;6521;50.498;8.474;2023-03-01T16:11:04;5.49;45.04
12907;DHT22;6521;50.498;8.474;2023-03-01T16:13:36;5.40;45.85
12907;DHT22;6521;50.498;8.474;2023-03-01T16:16:08;5.35;45.92
12907;DHT22;6521;50.498;8.474;2023-03-01T16:18:44;5.31;46.16
12907;DHT22;6521;50.498;8.474;2023-03-01T16:21:20;5.22;46.72
12907;DHT22;6521;50.498;8.474;2023-03-01T16:23:52;5.15;46.89
12907;DHT22;6521;50.498;8.474;2023-03-01T16:26:22;5.09;45.71
12907;DHT22;6521;50.498;8.474;2023-03-01T16:28:57;5.05;45.88
12907;DHT22;6521;50.498;8.474;2023-03-01T16:31:28;4.97;44.93
12907;DHT22;6521;50.498;8.474;2023-03-01T16:33:59;4.92;44.46
12907;DHT22;6521;50.498;8.474;2023-03-01T16:36:30;4.83;44.67
12907;DHT22;6521;50.498;8.474;2023-03-01T16:39:01;4.80;44.99
12907;DHT22;6521;50.498;8.474;2023-03-01T16:41:33;4.73;45.75
12907;DHT22;6521;50.498;8.474;2023-03-01T16:44:03;4.64;46.08
12907;DHT22;6521;50.498;8.474;2023-03-01T16:46:34;4.56;46.07
12907;DHT22;6521;50.498;8.474;2023-03-01T16:49:05;4.53;45.94
12907;DHT22;6521;50.498;8.474;2023-03-01T16:51:36;4.49;46.65
12907;DHT22;6521;50.498;8.474;2023-03-01T16:54:08;4.42;46.66
12907;DHT22;6521;50.498;8.474;2023-03-01T16:56:39;4.35;46.85
12907;DHT22;6521;50.498;8.474;2023-03-01T16:59:10;4.26;46.58
12907;DHT22;6521;50.498;8.474;2023-03-01T17:01:40;4.29;46.31
12907;DHT22;6521;50.498;8.474;2023-03-01T17:04:12;4.19;47.14
12907;DHT22;6521;50.498;8.474;2023-03-01T17:06:42;4.19;46.77
12907;DHT22;6521;50.498;8.474;2023-03-01T17:09:13;4.12;46.13
12907;DHT22;6521;50.498;8.474;2023-03-01T17:11:44;4.10;46.26
12907;DHT22;6521;50.498;8.474;2023-03-01T17:14:16;4.02;46.32
12907;DHT22;6521;50.498;8.474;2023-03-01T17:16:47;3.95;46.30
12907;DHT22;6521;50.498;8.474;2023-03-01T17:19:18;3.87;47.09
12907;DHT22;6521;50.498;8.474;2023-03-01T17:21:49;3.85;46.96
12907;DHT22;6521;50.498;8.474;2023-03-01T17:24:20;3.85;46.38
12907;DHT22;6521;50.498;8.474;2023-03-01T17:26:51;3.81;46.65
12907;DHT22;6521;50.498;8.474;2023-03-01T17:29:21;3.75;46.81
12907;DHT22;6521;50.498;8.474;2023-03-01T17:31:52;3.70;47.32
12907;DHT22;6521;50.498;8.474;2023-03-01T17:34:26;3.67;47.47
12907;DHT22;6521;50.498;8.474;2023-03-01T17:36:57;3.64;46.93
12907;DHT22;6521;50.498;8.474;2023-03-01T17:39:28;3.63;47.71
12907;DHT22;6521;50.498;8.474;2023-03-01T17:42:05;3.58;47.60
12907;DHT22;6521;50.498;8.474;2023-03-01T17:44:36;3.51;47.90
12907;DHT22;6521;50.498;8.474;2023-03-01T17:47:08;3.48;48.22
12907;DHT22;6521;50.498;8.474;2023-03-01T17:49:39;3.46;47.73
12907;DHT22;6521;50.498;8.474;2023-03-01T17:52:10;3.43;47.83
12907;DHT22;6521;50.498;8.474;2023-03-01T17:54:41;3.38;47.48
12907;DHT22;6521;50.498;8.474;2023-03-01T17:57:12;3.37;47.96
12907;DHT22;6521;50.498;8.474;2023-03-01T17:59:43;3.34;47.77
12907;DHT22;6521;50.498;8.474;2023-03-01T18:02:14;3.30;47.82
12907;DHT22;6521;50.498;8.474;2023-03-01T18:04:45;3.30;48.15
12907;DHT22;6521;50.498;8.474;2023-03-01T18:07:15;3.24;48.89
12907;DHT22;6521;50.498;8.474;2023-03-01T18:09:46;3.19;48.80
12907;DHT22;6521;50.498;8.474;2023-03-01T18:12:18;3.20;48.28
12907;DHT22;6521;50.498;8.474;2023-03-01T18:14:49;3.22;48.35